Time;durP1;ratioP1;P1;durP2;ratioP2;P2;SDS_P1;SDS_P2;PMS_P1;PMS_P2;Temp;Humidity;BMP_temperature;BMP_pressure;BME280_temperature;BME280_humidity;BME280_pressure;Samples;Min_cycle;Max_cycle;Signal;HPM_P1;HPM_P2
2021/10/09 00:01:43;;;;;;;46.42;28.13;;;11.00;99.90;;;;;;4881495;29;20064;-83
2021/10/09 00:04:25;;;;;;;53.95;29.45;;;10.90;99.90;;;;;;4882708;29;20051;-83
2021/10/09 00:07:39;;;;;;;46.92;26.27;;;10.90;99.90;;;;;;4898532;29;20069;-84
2021/10/09 00:10:08;;;;;;;47.65;28.33;;;11.10;99.90;;;;;;4888850;29;20045;-86
2021/10/09 00:13:15;;;;;;;49.75;28.90;;;11.00;99.90;;;;;;4877210;29;20053;-84
2021/10/09 00:16:16;;;;;;;46.22;26.55;;;11.00;99.90;;;;;;4880161;29;20056;-84
2021/10/09 00:18:52;;;;;;;43.08;26.65;;;11.10;99.90;;;;;;4890489;29;20041;-84
2021/10/09 00:21:43;;;;;;;47.22;28.50;;;11.60;99.90;;;;;;4875754;29;20056;-84
2021/10/09 00:24:19;;;;;;;42.60;27.05;;;11.20;99.90;;;;;;4878011;29;20235;-83
2021/10/09 00:26:51;;;;;;;53.15;27.73;;;11.20;99.90;;;;;;4879388;29;20051;-82
2021/10/09 00:30:07;;;;;;;54.65;30.48;;;11.40;99.90;;;;;;4875163;29;20055;-83
2021/10/09 00:32:47;;;;;;;52.75;28.00;;;11.30;99.90;;;;;;4862031;29;20056;-83
2021/10/09 00:36:12;;;;;;;55.40;32.15;;;11.50;99.90;;;;;;4869177;29;20053;-84
2021/10/09 00:39:07;;;;;;;52.33;28.70;;;11.40;99.90;;;;;;4892704;29;20044;-83
2021/10/09 00:42:04;;;;;;;50.60;28.67;;;10.60;99.90;;;;;;4909771;29;20057;-83
2021/10/09 00:44:33;;;;;;;44.13;26.65;;;11.80;99.90;;;;;;4896793;29;20454;-82
2021/10/09 00:47:05;;;;;;;52.88;27.25;;;11.70;99.90;;;;;;4884331;29;20429;-82
2021/10/09 00:49:42;;;;;;;54.30;30.48;;;11.60;99.90;;;;;;4885604;29;20072;-83
2021/10/09 00:52:20;;;;;;;63.30;33.65;;;11.80;99.90;;;;;;4899541;29;20056;-82
2021/10/09 00:55:08;;;;;;;79.32;39.20;;;11.80;99.90;;;;;;4893442;29;20056;-82
2021/10/09 00:58:08;;;;;;;80.15;37.70;;;13.20;99.90;;;;;;4914940;29;20415;-85
2021/10/09 01:00:49;;;;;;;88.07;42.92;;;11.20;99.90;;;;;;4891236;29;20052;-82
2021/10/09 01:04:13;;;;;;;97.47;43.33;;;11.90;99.90;;;;;;4890051;29;20061;-83
2021/10/09 01:07:07;;;;;;;111.95;44.72;;;12.90;99.90;;;;;;4892518;29;20052;-82
2021/10/09 01:09:48;;;;;;;162.68;54.95;;;12.00;99.90;;;;;;4859663;29;20053;-80
2021/10/09 01:12:25;;;;;;;202.63;66.00;;;12.00;99.90;;;;;;4880757;29;20053;-82
2021/10/09 01:15:05;;;;;;;271.70;73.40;;;12.80;99.90;;;;;;4864508;29;20060;-82
2021/10/09 01:18:20;;;;;;;205.25;68.60;;;12.00;99.90;;;;;;4862360;29;20053;-83
2021/10/09 01:22:11;;;;;;;;;;;;;;;;;;;;;
2021/10/09 01:24:41;;;;;;;665.40;107.00;;;13.90;99.90;;;;;;4897031;29;20056;-81
2021/10/09 01:27:16;;;;;;;232.05;66.53;;;13.60;99.90;;;;;;4894225;29;20044;-83
2021/10/09 01:29:46;;;;;;;477.45;84.07;;;12.20;99.90;;;;;;4879681;29;20052;-81
2021/10/09 01:32:45;;;;;;;673.78;109.78;;;12.20;99.90;;;;;;4885154;29;20048;-83
2021/10/09 01:35:52;;;;;;;320.20;66.43;;;11.00;99.90;;;;;;4874638;29;20052;-83
2021/10/09 01:38:35;;;;;;;501.52;81.10;;;12.10;99.90;;;;;;4896756;29;20049;-83
2021/10/09 01:41:35;;;;;;;355.25;77.00;;;12.20;99.90;;;;;;4880039;29;20064;-82
2021/10/09 01:44:38;;;;;;;566.40;106.70;;;12.10;99.90;;;;;;4886206;29;20064;-82
2021/10/09 01:47:59;;;;;;;314.58;71.03;;;12.20;99.90;;;;;;4880280;29;20053;-82
2021/10/09 01:50:43;;;;;;;428.27;83.50;;;12.80;99.90;;;;;;4908689;29;20049;-82
2021/10/09 01:54:00;;;;;;;431.13;87.95;;;11.00;99.90;;;;;;4908481;29;20032;-84
2021/10/09 01:57:00;;;;;;;405.10;73.90;;;12.70;99.90;;;;;;4909725;29;20052;-84
2021/10/09 01:59:49;;;;;;;525.88;90.18;;;12.00;99.90;;;;;;4891724;29;20060;-82
2021/10/09 02:02:24;;;;;;;182.55;53.72;;;12.00;99.90;;;;;;4872846;29;20049;-82
2021/10/09 02:05:04;;;;;;;535.13;104.03;;;11.90;99.90;;;;;;4882578;29;20049;-83
2021/10/09 02:07:44;;;;;;;233.15;62.70;;;12.00;99.90;;;;;;4883451;29;20036;-83
2021/10/09 02:11:00;;;;;;;295.80;57.00;;;11.90;99.90;;;;;;4904737;29;20054;-83
2021/10/09 02:14:38;;;;;;;258.38;56.25;;;12.00;99.90;;;;;;4899629;29;20057;-83
2021/10/09 02:26:16;;;;;;;392.67;62.22;;;12.00;99.90;;;;;;4908539;29;20044;-82
2021/10/09 02:29:09;;;;;;;182.00;44.05;;;10.80;99.90;;;;;;4871697;29;20056;-83
2021/10/09 02:32:01;;;;;;;268.55;57.80;;;13.00;99.90;;;;;;4880801;29;20052;-84
2021/10/09 02:35:11;;;;;;;302.05;55.78;;;12.10;99.90;;;;;;4904632;29;20058;-84
2021/10/09 02:38:16;;;;;;;153.27;37.33;;;12.60;99.90;;;;;;4886237;29;20059;-84
2021/10/09 02:40:51;;;;;;;233.18;53.00;;;11.90;99.90;;;;;;4887908;29;20064;-83
2021/10/09 02:43:46;;;;;;;195.48;47.65;;;12.10;99.90;;;;;;4879786;29;20055;-85
2021/10/09 02:46:18;;;;;;;284.48;56.78;;;11.90;99.90;;;;;;4884462;29;20049;-81
2021/10/09 02:49:44;;;;;;;197.65;43.72;;;11.90;99.90;;;;;;4882925;29;20061;-85
2021/10/09 03:00:15;;;;;;;212.10;45.85;;;12.00;99.90;;;;;;4822580;29;20063;-83
2021/10/09 03:02:53;;;;;;;221.45;47.53;;;12.00;99.90;;;;;;4895967;29;20490;-84
2021/10/09 03:05:24;;;;;;;187.18;39.53;;;10.90;99.90;;;;;;4905435;29;20057;-84
2021/10/09 03:08:19;;;;;;;198.38;49.03;;;11.70;99.90;;;;;;4889446;29;20044;-84
2021/10/09 03:11:02;;;;;;;228.70;45.47;;;11.60;99.90;;;;;;4906425;29;20048;-84
2021/10/09 03:13:52;;;;;;;191.55;41.03;;;11.80;99.90;;;;;;4890574;29;20061;-85
2021/10/09 03:16:34;;;;;;;298.17;52.88;;;11.80;99.90;;;;;;4877138;29;20045;-84
2021/10/09 03:19:39;;;;;;;263.48;53.80;;;11.20;99.90;;;;;;4885411;29;20052;-84
2021/10/09 03:22:50;;;;;;;;;;;;;;;;;;;;;
2021/10/09 03:25:58;;;;;;;361.88;66.72;;;11.70;99.90;;;;;;4881262;29;20057;-84
2021/10/09 03:28:38;;;;;;;245.73;55.20;;;11.70;99.90;;;;;;4896240;29;20084;-85
2021/10/09 03:31:25;;;;;;;292.23;59.97;;;11.70;99.90;;;;;;4885320;29;20049;-85
2021/10/09 03:33:57;;;;;;;327.85;57.58;;;11.70;99.90;;;;;;4880938;29;20049;-86
2021/10/09 03:36:54;;;;;;;394.38;63.25;;;11.70;99.90;;;;;;4896846;29;20403;-83
2021/10/09 03:43:16;;;;;;;;;;;11.60;99.90;;;;;;4871146;29;20055;-86
2021/10/09 03:46:01;;;;;;;286.75;49.92;;;11.60;99.90;;;;;;4895018;29;20413;-85
2021/10/09 03:53:00;;;;;;;336.92;58.60;;;11.50;99.90;;;;;;4882374;29;20052;-84
2021/10/09 03:55:39;;;;;;;187.63;35.60;;;11.40;99.90;;;;;;4883914;29;20053;-84
2021/10/09 03:58:29;;;;;;;137.13;34.95;;;11.50;99.90;;;;;;4889487;29;20049;-82
2021/10/09 04:04:37;;;;;;;256.98;48.00;;;11.70;99.90;;;;;;4892037;29;20053;-84
2021/10/09 04:07:56;;;;;;;413.98;72.47;;;11.50;99.90;;;;;;4877588;29;20087;-84
2021/10/09 04:10:45;;;;;;;339.45;54.60;;;11.60;99.90;;;;;;4873756;29;20067;-82
2021/10/09 04:13:29;;;;;;;185.40;35.88;;;11.50;99.90;;;;;;4898832;29;20556;-85
2021/10/09 04:16:00;;;;;;;199.35;37.67;;;11.50;99.90;;;;;;4890604;29;20044;-84
2021/10/09 04:18:39;;;;;;;423.30;63.15;;;11.40;99.90;;;;;;4889554;29;20048;-84
2021/10/09 04:21:39;;;;;;;336.88;55.17;;;11.50;99.90;;;;;;4891955;29;20044;-83
2021/10/09 04:25:12;;;;;;;;;;;;;;;;;;;;;
2021/10/09 04:28:08;;;;;;;235.35;40.72;;;10.90;99.90;;;;;;4913349;29;20037;-87
2021/10/09 04:30:46;;;;;;;318.13;52.60;;;11.40;99.90;;;;;;4893076;29;20050;-85
2021/10/09 04:33:41;;;;;;;260.85;42.15;;;11.40;99.90;;;;;;4863901;29;20060;-83
2021/10/09 04:36:58;;;;;;;193.23;38.35;;;11.30;99.90;;;;;;4860860;29;20060;-83
2021/10/09 04:40:14;;;;;;;;;;;;;;;;;;;;;
2021/10/09 04:43:41;;;;;;;162.07;36.97;;;11.50;99.90;;;;;;4867598;29;20487;-84
2021/10/09 04:46:20;;;;;;;165.85;35.72;;;11.00;99.90;;;;;;4890546;29;20049;-82
2021/10/09 04:48:57;;;;;;;130.35;30.35;;;11.40;99.90;;;;;;4859439;29;20054;-84
2021/10/09 04:51:59;;;;;;;230.73;46.40;;;11.40;99.90;;;;;;4886012;29;20064;-85
2021/10/09 04:55:21;;;;;;;;;;;;;;;;;;;;;
2021/10/09 04:58:16;;;;;;;318.67;51.25;;;11.20;99.90;;;;;;4875773;29;20049;-86
2021/10/09 05:01:01;;;;;;;273.65;46.13;;;11.40;99.90;;;;;;4877419;29;20387;-82
2021/10/09 05:03:57;;;;;;;285.73;45.17;;;11.40;99.90;;;;;;4881487;29;20041;-83
2021/10/09 05:06:47;;;;;;;359.13;52.95;;;11.50;99.90;;;;;;4880977;29;20055;-86
2021/10/09 05:09:26;;;;;;;327.13;52.92;;;11.40;99.90;;;;;;4862303;29;20057;-84
2021/10/09 05:12:25;;;;;;;327.77;46.05;;;11.30;99.90;;;;;;4854538;29;20048;-83
2021/10/09 05:15:23;;;;;;;263.48;42.30;;;11.30;99.90;;;;;;4855830;29;20055;-82
2021/10/09 05:19:03;;;;;;;196.45;35.70;;;11.30;99.90;;;;;;4863798;29;20064;-84
2021/10/09 05:22:32;;;;;;;274.23;45.97;;;11.30;99.90;;;;;;4877651;29;20065;-82
2021/10/09 05:25:19;;;;;;;244.63;45.30;;;11.50;99.90;;;;;;4891695;29;20037;-83
2021/10/09 05:29:00;;;;;;;;;;;11.30;99.90;;;;;;4865731;29;20045;-86
2021/10/09 05:36:16;;;;;;;275.58;48.92;;;11.40;99.90;;;;;;4887118;29;20068;-84
2021/10/09 05:39:52;;;;;;;;;;;;;;;;;;;;;
2021/10/09 05:42:37;;;;;;;254.65;38.25;;;11.20;99.90;;;;;;4875289;29;20068;-84
2021/10/09 05:45:20;;;;;;;247.43;40.70;;;11.30;99.90;;;;;;4903317;29;20039;-84
2021/10/09 05:48:39;;;;;;;;;;;;;;;;;;;;;
2021/10/09 05:56:58;;;;;;;270.88;40.70;;;11.20;99.90;;;;;;4878171;29;20057;-84
2021/10/09 06:00:28;;;;;;;244.32;42.47;;;11.20;99.90;;;;;;4874354;29;20049;-85
2021/10/09 06:46:01;;;;;;;290.42;40.15;;;11.00;99.90;;;;;;4776435;29;20064;-83
2021/10/09 06:49:46;;;;;;;319.98;42.47;;;10.10;99.90;;;;;;4739553;30;20060;-82
2021/10/09 07:00:04;;;;;;;211.20;42.25;;;10.90;99.90;;;;;;4775933;29;20172;-85
2021/10/09 07:07:21;;;;;;;302.38;43.50;;;11.70;99.90;;;;;;4797501;29;19925;-83
2021/10/09 07:11:14;;;;;;;;;;;;;;;;;;;;;
2021/10/09 07:14:20;;;;;;;182.18;40.42;;;11.10;99.90;;;;;;4785092;29;20071;-84
2021/10/09 07:17:50;;;;;;;321.70;52.80;;;11.00;99.90;;;;;;4757927;30;20072;-84
2021/10/09 07:20:55;;;;;;;288.30;41.92;;;11.10;99.90;;;;;;4755713;30;20136;-83
2021/10/09 07:24:06;;;;;;;222.50;37.92;;;11.10;99.90;;;;;;4745620;30;20051;-84
2021/10/09 07:26:57;;;;;;;285.35;48.55;;;11.10;99.90;;;;;;4780852;30;20071;-83
2021/10/09 07:30:31;;;;;;;127.00;33.33;;;11.10;99.90;;;;;;4756023;30;20064;-83
2021/10/09 07:34:23;;;;;;;173.93;34.70;;;11.10;99.90;;;;;;4759919;30;20076;-85
2021/10/09 07:37:37;;;;;;;;;;;;;;;;;;;;;
2021/10/09 07:40:29;;;;;;;104.40;34.08;;;11.20;99.90;;;;;;4783154;29;20050;-83
2021/10/09 07:43:01;;;;;;;173.02;40.65;;;11.10;99.90;;;;;;4894019;29;20053;-84
2021/10/09 07:45:32;;;;;;;204.95;38.17;;;11.30;99.90;;;;;;4888483;29;20441;-85
2021/10/09 07:48:23;;;;;;;154.57;36.22;;;11.40;99.90;;;;;;4892228;29;20060;-83
2021/10/09 07:51:10;;;;;;;282.70;45.67;;;11.90;99.90;;;;;;4873940;29;20282;-84
2021/10/09 07:54:19;;;;;;;;;;;;;;;;;;;;;
2021/10/09 07:57:34;;;;;;;195.32;45.00;;;11.60;99.90;;;;;;4876964;29;20049;-83
2021/10/09 08:04:08;;;;;;;;;;;;;;;;;;;;;
2021/10/09 08:07:30;;;;;;;148.88;39.22;;;11.70;99.90;;;;;;4875431;29;20084;-83
2021/10/09 08:13:51;;;;;;;;;;;;;;;;;;;;;
2021/10/09 08:16:56;;;;;;;127.40;35.72;;;11.80;99.90;;;;;;4890539;29;20067;-84
2021/10/09 08:20:10;;;;;;;;;;;;;;;;;;;;;
2021/10/09 08:22:58;;;;;;;120.60;34.33;;;13.50;99.90;;;;;;4894468;29;20049;-87
2021/10/09 08:26:16;;;;;;;;;;;;;;;;;;;;;
2021/10/09 08:40:27;;;;;;;95.38;34.85;;;12.30;99.90;;;;;;4879069;29;20698;-85
2021/10/09 08:43:49;;;;;;;115.32;33.28;;;12.30;99.90;;;;;;4894198;29;20049;-82
2021/10/09 08:47:18;;;;;;;99.53;30.83;;;12.40;99.90;;;;;;4880304;29;20053;-87
2021/10/09 08:51:15;;;;;;;111.75;35.17;;;12.50;99.90;;;;;;4820790;29;20062;-84
2021/10/09 08:54:09;;;;;;;120.70;34.35;;;12.50;99.90;;;;;;4829990;29;20065;-84
2021/10/09 08:57:03;;;;;;;140.55;41.28;;;12.50;99.90;;;;;;4846394;29;20054;-82
2021/10/09 09:00:45;;;;;;;140.05;36.45;;;12.60;99.90;;;;;;4788736;29;20065;-83
2021/10/09 09:31:05;;;;;;;80.05;31.52;;;13.30;99.90;;;;;;4818309;29;20066;-84
2021/10/09 09:39:24;;;;;;;81.72;34.83;;;13.60;99.90;;;;;;4818989;29;20050;-84
2021/10/09 09:42:55;;;;;;;;;;;;;;;;;;;;;
2021/10/09 09:47:11;;;;;;;83.43;33.15;;;13.50;99.90;;;;;;4790629;29;20067;-86
2021/10/09 09:51:12;;;;;;;75.95;36.08;;;15.10;99.90;;;;;;4799472;29;20565;-86
2021/10/09 09:54:25;;;;;;;89.70;37.92;;;14.10;99.90;;;;;;4790306;30;20063;-86
2021/10/09 09:57:02;;;;;;;72.95;34.60;;;14.30;99.90;;;;;;4797303;29;20059;-86
2021/10/09 10:00:31;;;;;;;;;;;;;;;;;;;;;
2021/10/09 10:04:14;;;;;;;75.28;34.08;;;14.40;99.90;;;;;;4860619;29;20060;-83
2021/10/09 10:07:20;;;;;;;;;;;;;;;;;;;;;
2021/10/09 10:10:41;;;;;;;74.13;38.05;;;14.50;99.90;;;;;;4844900;29;20054;-86
2021/10/09 10:14:17;;;;;;;;;;;;;;;;;;;;;
2021/10/09 10:18:30;;;;;;;;;;;;;;;;;;;;;
2021/10/09 10:21:44;;;;;;;70.93;35.70;;;14.90;99.90;;;;;;4893844;29;20057;-83
2021/10/09 10:24:58;;;;;;;;;;;;;;;;;;;;;
2021/10/09 10:28:40;;;;;;;67.82;36.42;;;15.20;99.90;;;;;;4885583;29;20045;-84
2021/10/09 10:31:25;;;;;;;85.32;35.75;;;15.40;99.90;;;;;;4874730;29;20059;-84
2021/10/09 10:34:23;;;;;;;64.70;33.95;;;15.40;99.90;;;;;;4875081;29;20049;-82
2021/10/09 10:37:00;;;;;;;67.05;35.17;;;15.60;99.90;;;;;;4872790;29;20056;-82
2021/10/09 10:39:55;;;;;;;67.15;37.30;;;15.60;99.90;;;;;;4874405;29;20056;-86
2021/10/09 10:42:38;;;;;;;79.40;37.47;;;15.50;99.90;;;;;;4874317;29;20056;-84
2021/10/09 10:45:42;;;;;;;68.82;36.47;;;15.50;99.90;;;;;;4886180;29;20048;-84
2021/10/09 10:49:09;;;;;;;74.75;38.97;;;15.50;99.90;;;;;;4871115;29;20052;-89
2021/10/09 10:55:21;;;;;;;72.75;35.08;;;15.50;99.90;;;;;;4853853;29;20060;-87
2021/10/09 11:01:42;;;;;;;76.00;37.78;;;15.60;99.90;;;;;;4879796;29;20053;-82
2021/10/09 11:05:39;;;;;;;80.57;39.65;;;15.60;99.90;;;;;;4893207;29;20055;-85
2021/10/09 11:09:38;;;;;;;67.22;37.33;;;15.10;99.90;;;;;;4885795;29;20064;-89
2021/10/09 11:12:51;;;;;;;71.13;36.22;;;15.80;99.90;;;;;;4904386;29;20042;-86
2021/10/09 11:15:55;;;;;;;68.72;36.95;;;15.90;99.90;;;;;;4895567;29;20063;-87
2021/10/09 11:19:13;;;;;;;71.50;37.63;;;15.70;99.90;;;;;;4889786;29;20052;-87
2021/10/09 11:21:56;;;;;;;64.40;37.33;;;16.20;99.90;;;;;;4892676;29;20056;-84
2021/10/09 11:25:03;;;;;;;58.65;33.88;;;16.30;99.90;;;;;;4884591;29;20049;-85
2021/10/09 11:28:59;;;;;;;71.07;38.65;;;16.40;99.90;;;;;;4886772;29;20048;-89
2021/10/09 11:31:41;;;;;;;60.10;33.22;;;16.50;99.90;;;;;;4902555;29;20054;-83
2021/10/09 11:34:13;;;;;;;58.75;32.72;;;16.60;99.90;;;;;;4866887;29;20052;-84
2021/10/09 11:36:59;;;;;;;66.13;33.25;;;16.70;99.90;;;;;;4892516;29;20045;-84
2021/10/09 11:39:48;;;;;;;60.30;35.00;;;16.90;99.90;;;;;;4875859;29;20049;-84
2021/10/09 11:42:29;;;;;;;63.30;34.97;;;17.00;99.90;;;;;;4961058;23;20052;-88
2021/10/09 11:45:24;;;;;;;60.65;33.00;;;17.20;99.90;;;;;;5029389;23;20065;31
2021/10/09 11:59:36;;;;;;;46.67;25.55;;;17.60;99.90;;;;;;4913916;29;20054;-87
2021/10/09 12:02:37;;;;;;;45.97;26.75;;;16.80;99.90;;;;;;4909814;29;20150;-84
2021/10/09 12:10:16;;;;;;;40.22;25.00;;;16.70;99.90;;;;;;4866603;29;20064;-84
2021/10/09 12:13:05;;;;;;;37.10;24.38;;;18.00;99.90;;;;;;4889277;29;20048;-83
2021/10/09 12:16:14;;;;;;;43.90;24.27;;;17.10;99.90;;;;;;4909889;29;20062;-83
2021/10/09 12:19:05;;;;;;;46.53;26.70;;;17.90;99.90;;;;;;4908293;29;20057;-84
2021/10/09 12:22:06;;;;;;;44.22;25.75;;;19.30;99.90;;;;;;4923005;29;20060;-85
2021/10/09 12:29:16;;;;;;;45.47;26.25;;;18.00;99.90;;;;;;4858212;29;20049;-83
2021/10/09 12:32:35;;;;;;;;;;;;;;;;;;;;;
2021/10/09 12:35:59;;;;;;;47.25;26.27;;;18.20;99.90;;;;;;4890814;29;20061;-83
2021/10/09 12:39:41;;;;;;;50.55;24.30;;;18.30;99.90;;;;;;4848422;29;20067;-82
2021/10/09 12:43:46;;;;;;;;;;;;;;;;;;;;;
2021/10/09 12:47:09;;;;;;;45.40;26.30;;;17.60;99.90;;;;;;4876099;29;20053;-81
2021/10/09 12:49:42;;;;;;;38.63;23.48;;;18.50;99.90;;;;;;4871936;29;20057;-84
2021/10/09 12:52:27;;;;;;;52.03;25.48;;;18.50;99.90;;;;;;4902263;29;20064;-85
2021/10/09 13:01:16;;;;;;;39.10;23.17;;;18.60;99.90;;;;;;4827885;29;20074;-87
2021/10/09 13:03:46;;;;;;;;;;;18.60;99.90;;;;;;4797556;29;20062;-88
2021/10/09 13:07:11;;;;;;;39.28;22.42;;;18.20;99.90;;;;;;4789938;29;19924;-83
2021/10/09 13:09:54;;;;;;;39.92;22.58;;;18.60;99.90;;;;;;4844950;29;20613;-85
2021/10/09 13:12:53;;;;;;;;;;;;;;;;;;;;;
2021/10/09 13:16:26;;;;;;;34.58;20.23;;;18.70;99.90;;;;;;4822875;29;20057;-84
2021/10/09 13:18:59;;;;;;;35.30;20.05;;;18.70;99.90;;;;;;4827881;29;20046;-83
2021/10/09 13:22:23;;;;;;;29.23;17.20;;;18.80;99.90;;;;;;4834226;29;20050;-85
2021/10/09 13:25:20;;;;;;;30.33;16.80;;;18.80;99.90;;;;;;4824239;29;20077;-82
2021/10/09 13:28:25;;;;;;;29.98;17.30;;;18.90;99.90;;;;;;4843219;29;20057;-82
2021/10/09 13:32:20;;;;;;;38.08;17.70;;;18.90;99.90;;;;;;4836174;29;20127;-83
2021/10/09 13:35:30;;;;;;;30.85;16.13;;;19.00;99.90;;;;;;4847140;29;20050;-84
2021/10/09 13:42:10;;;;;;;31.10;17.45;;;19.10;99.90;;;;;;4913154;29;20055;-92
2021/10/09 13:45:16;;;;;;;31.88;13.68;;;19.10;99.90;;;;;;4892375;29;20056;-96
2021/10/09 13:48:03;;;;;;;26.20;15.57;;;19.10;99.90;;;;;;4880056;29;20060;-92
2021/10/09 13:50:58;;;;;;;30.33;15.45;;;19.10;99.90;;;;;;4899155;29;20087;-95
2021/10/09 13:54:52;;;;;;;30.85;16.17;;;19.00;99.90;;;;;;4903556;29;20036;-95
2021/10/09 13:58:13;;;;;;;24.73;14.40;;;19.00;99.90;;;;;;4906855;29;20048;-93
2021/10/09 14:00:55;;;;;;;27.58;15.20;;;19.00;99.90;;;;;;4884914;29;20630;-91
2021/10/09 14:04:25;;;;;;;31.38;16.92;;;19.00;99.90;;;;;;4867065;29;20040;-94
2021/10/09 14:08:32;;;;;;;28.95;14.52;;;19.30;99.90;;;;;;4951452;23;20048;-86
2021/10/09 14:13:03;;;;;;;27.60;15.05;;;19.90;99.90;;;;;;4949008;29;20051;-85
2021/10/09 14:16:40;;;;;;;;;;;;;;;;;;;;;
2021/10/09 14:20:09;;;;;;;24.40;12.55;;;19.00;99.90;;;;;;4931341;29;20078;-82
2021/10/09 14:22:43;;;;;;;35.92;11.90;;;18.90;99.90;;;;;;4936296;29;20057;-85
2021/10/09 14:25:33;;;;;;;20.73;11.38;;;18.90;99.90;;;;;;4933400;29;20058;-83
2021/10/09 14:28:25;;;;;;;21.05;11.77;;;18.60;99.90;;;;;;4947977;29;20047;-80
2021/10/09 14:31:01;;;;;;;20.80;10.88;;;19.00;99.90;;;;;;4947259;29;20051;-81
2021/10/09 14:33:32;;;;;;;;;;;19.00;99.90;;;;;;4943770;29;20051;-85
2021/10/09 14:36:08;;;;;;;17.25;9.82;;;19.10;99.90;;;;;;4931791;29;19926;-82
2021/10/09 14:38:56;;;;;;;20.80;10.27;;;19.10;99.90;;;;;;4952406;29;20047;-82
2021/10/09 14:48:53;;;;;;;24.92;13.43;;;19.30;99.90;;;;;;4850528;29;20069;-89
2021/10/09 15:25:49;;;;;;;25.58;14.52;;;17.70;99.90;;;;;;4758241;30;20046;-86
2021/10/09 15:32:28;;;;;;;23.80;14.90;;;18.30;99.90;;;;;;4845341;29;21055;-87
2021/10/09 15:40:13;;;;;;;;;;;18.10;99.90;;;;;;4832989;29;20058;-88
2021/10/09 15:47:06;;;;;;;21.05;13.05;;;17.50;99.90;;;;;;4832572;29;20060;-83
2021/10/09 15:50:08;;;;;;;25.70;14.50;;;18.60;99.90;;;;;;4858304;29;20054;-83
2021/10/09 15:53:05;;;;;;;22.77;13.68;;;18.10;99.90;;;;;;4825345;29;20059;-85
2021/10/09 15:55:37;;;;;;;22.13;11.88;;;18.10;99.90;;;;;;4871401;29;20059;-88
2021/10/09 15:58:38;;;;;;;35.03;14.43;;;18.00;99.90;;;;;;4885924;29;20045;-85
2021/10/09 16:04:39;;;;;;;18.75;11.55;;;17.70;99.90;;;;;;4886181;29;19938;-87
2021/10/09 16:08:58;;;;;;;23.42;11.95;;;17.60;99.90;;;;;;4838723;29;20050;-83
2021/10/09 16:11:32;;;;;;;22.02;11.77;;;17.40;99.90;;;;;;4848719;29;20057;-85
2021/10/09 16:15:31;;;;;;;22.63;13.13;;;16.30;99.90;;;;;;4849871;29;20081;-85
2021/10/09 16:19:19;;;;;;;;;;;17.30;99.90;;;;;;4836377;29;20056;-87
2021/10/09 16:27:05;;;;;;;20.80;13.10;;;17.10;99.90;;;;;;4870961;29;20056;-83
2021/10/09 16:30:59;;;;;;;21.95;12.32;;;16.00;99.90;;;;;;4884930;29;20056;-84
2021/10/09 16:34:33;;;;;;;20.98;11.43;;;16.90;99.90;;;;;;4813633;29;20062;-86
2021/10/09 16:37:14;;;;;;;20.48;11.73;;;16.80;99.90;;;;;;4834639;29;20361;-83
2021/10/09 16:39:58;;;;;;;24.45;12.00;;;16.80;99.90;;;;;;4830319;29;20051;-81
2021/10/09 16:43:08;;;;;;;22.90;12.80;;;16.70;99.90;;;;;;4826640;29;20061;-82
2021/10/09 16:45:54;;;;;;;18.55;10.50;;;16.40;99.90;;;;;;4826693;29;20042;-84
2021/10/09 16:48:37;;;;;;;23.92;11.23;;;16.60;99.90;;;;;;4812961;29;20062;-87
2021/10/09 16:51:19;;;;;;;20.75;11.50;;;16.60;99.90;;;;;;4797711;29;20058;-82
2021/10/09 16:54:15;;;;;;;22.30;11.88;;;16.40;99.90;;;;;;4816013;29;20058;-81
2021/10/09 16:57:21;;;;;;;;;;;;;;;;;;;;;
2021/10/09 17:00:16;;;;;;;19.75;10.88;;;16.10;99.90;;;;;;4819795;29;20059;-82
2021/10/09 17:03:50;;;;;;;24.48;12.18;;;15.90;99.90;;;;;;4819488;29;20043;-87
2021/10/09 17:07:11;;;;;;;21.83;13.35;;;16.20;99.90;;;;;;4901025;29;20059;-82
2021/10/09 17:09:53;;;;;;;22.83;12.45;;;15.70;99.90;;;;;;4891992;29;20154;-84
2021/10/09 17:13:14;;;;;;;25.90;14.15;;;15.50;99.90;;;;;;4902448;29;20313;-84
2021/10/09 17:16:26;;;;;;;33.63;22.73;;;15.40;99.90;;;;;;4897445;29;20062;-85
2021/10/09 17:23:33;;;;;;;;;;;;;;;;;;;;;
2021/10/09 17:35:22;;;;;;;25.30;13.00;;;14.70;99.90;;;;;;4896897;29;20155;-84
2021/10/09 17:39:27;;;;;;;42.47;15.90;;;14.60;99.90;;;;;;4894327;29;20400;-85
2021/10/09 17:43:13;;;;;;;;;;;;;;;;;;;;;
2021/10/09 17:47:17;;;;;;;24.95;13.93;;;14.50;99.90;;;;;;4899932;29;20052;-84
2021/10/09 17:50:48;;;;;;;;;;;;;;;;;;;;;
2021/10/09 17:54:19;;;;;;;29.08;13.98;;;13.10;99.90;;;;;;4890402;29;20064;-83
2021/10/09 18:01:38;;;;;;;32.47;17.92;;;14.00;99.90;;;;;;4923023;29;20048;-82
2021/10/09 18:04:50;;;;;;;30.00;17.33;;;13.90;99.90;;;;;;4922007;29;20055;-84
2021/10/09 18:07:18;;;;;;;30.70;16.88;;;13.90;99.90;;;;;;4904092;29;20052;-85
2021/10/09 18:09:49;;;;;;;29.42;16.25;;;13.80;99.90;;;;;;4889111;29;20056;-86
2021/10/09 18:12:26;;;;;;;31.75;16.23;;;13.80;99.90;;;;;;4901348;29;20119;-89
2021/10/09 18:14:56;;;;;;;30.60;16.77;;;13.80;99.90;;;;;;4894339;29;20045;-83
2021/10/09 18:17:35;;;;;;;26.65;16.23;;;13.80;99.90;;;;;;4901540;29;20057;-84
2021/10/09 18:20:09;;;;;;;33.95;16.83;;;13.80;99.90;;;;;;4905295;29;20067;-86
2021/10/09 18:23:19;;;;;;;41.63;23.15;;;13.80;99.90;;;;;;4923920;29;20042;-84
2021/10/09 18:25:47;;;;;;;71.55;23.90;;;13.80;99.90;;;;;;4866132;29;20053;-86
2021/10/09 18:28:17;;;;;;;41.60;22.42;;;13.80;99.90;;;;;;4890317;29;20056;-85
2021/10/09 18:30:47;;;;;;;32.03;19.45;;;13.70;99.90;;;;;;4881579;29;20056;-84
2021/10/09 18:33:26;;;;;;;34.28;17.42;;;13.70;99.90;;;;;;4911426;29;20059;-86
2021/10/09 18:36:05;;;;;;;34.53;17.70;;;13.70;99.90;;;;;;4901136;29;20059;-83
2021/10/09 18:38:37;;;;;;;28.05;16.05;;;13.70;99.90;;;;;;4911951;29;20055;-82
2021/10/09 18:41:10;;;;;;;33.47;18.13;;;13.60;99.90;;;;;;4908596;29;20062;-84
2021/10/09 18:43:54;;;;;;;28.55;17.02;;;13.60;99.90;;;;;;4903616;29;20050;-83
2021/10/09 18:46:30;;;;;;;31.05;17.73;;;12.90;99.90;;;;;;4891257;29;20046;-82
2021/10/09 18:49:01;;;;;;;32.15;18.02;;;13.50;99.90;;;;;;4905600;29;20056;-82
2021/10/09 18:51:42;;;;;;;30.15;16.65;;;13.10;99.90;;;;;;4909412;29;20538;-83
2021/10/09 18:54:42;;;;;;;28.77;17.27;;;13.50;99.90;;;;;;4914370;29;20059;-83
2021/10/09 18:57:28;;;;;;;30.45;18.00;;;13.40;99.90;;;;;;4929642;29;20052;-82
2021/10/09 18:59:56;;;;;;;32.47;20.60;;;13.30;99.90;;;;;;4890391;29;20052;-83
2021/10/09 19:02:27;;;;;;;36.30;19.52;;;13.30;99.90;;;;;;4919081;29;20056;-83
2021/10/09 19:05:19;;;;;;;28.95;19.08;;;13.20;99.90;;;;;;4910225;29;20056;-83
2021/10/09 19:07:54;;;;;;;32.13;19.67;;;13.10;99.90;;;;;;4916381;29;20406;-84
2021/10/09 19:10:33;;;;;;;32.40;21.77;;;13.10;99.90;;;;;;4898775;29;20143;-87
2021/10/09 19:13:02;;;;;;;37.83;21.25;;;13.00;99.90;;;;;;4909045;29;20055;-85
2021/10/09 19:15:47;;;;;;;31.58;20.50;;;12.90;99.90;;;;;;4924850;29;20047;-85
2021/10/09 19:18:17;;;;;;;33.83;20.70;;;12.90;99.90;;;;;;4920999;29;20627;-85
2021/10/09 19:20:56;;;;;;;34.60;19.52;;;12.90;99.90;;;;;;4876456;29;20059;-87
2021/10/09 19:23:26;;;;;;;34.53;21.48;;;12.80;99.90;;;;;;4896567;29;20054;-85
2021/10/09 19:25:54;;;;;;;33.08;20.35;;;12.80;99.90;;;;;;4890387;29;20060;-86
2021/10/09 19:28:22;;;;;;;36.50;22.05;;;12.80;99.90;;;;;;4913090;29;20066;-82
2021/10/09 19:30:52;;;;;;;38.87;23.67;;;11.50;99.90;;;;;;4926285;29;20044;-81
2021/10/09 19:33:32;;;;;;;42.17;24.08;;;12.70;99.90;;;;;;4925137;29;20048;-83
2021/10/09 19:36:10;;;;;;;38.55;22.40;;;12.70;99.90;;;;;;4920654;29;20058;-82
2021/10/09 19:38:46;;;;;;;39.15;24.27;;;12.60;99.90;;;;;;4908013;29;20052;-83
2021/10/09 19:41:16;;;;;;;38.00;22.98;;;12.50;99.90;;;;;;4898415;29;20059;-83
2021/10/09 19:43:52;;;;;;;37.47;22.80;;;12.50;99.90;;;;;;4908018;29;20044;-83
2021/10/09 19:46:23;;;;;;;34.88;23.17;;;12.40;99.90;;;;;;4907381;29;20077;-85
2021/10/09 19:48:55;;;;;;;35.08;22.92;;;12.50;99.90;;;;;;4910545;29;20062;-82
2021/10/09 19:51:50;;;;;;;38.90;24.73;;;12.40;99.90;;;;;;4906409;29;20058;-83
2021/10/09 19:54:30;;;;;;;40.70;25.60;;;12.30;99.90;;;;;;4920707;29;20048;-84
2021/10/09 19:57:18;;;;;;;41.60;25.48;;;12.30;99.90;;;;;;4915827;29;20059;-83
2021/10/09 19:59:50;;;;;;;41.47;26.92;;;12.30;99.90;;;;;;4921196;29;20068;-83
2021/10/09 20:02:22;;;;;;;48.65;29.45;;;12.30;99.90;;;;;;4924611;29;20052;-84
2021/10/09 20:04:51;;;;;;;47.30;28.67;;;12.20;99.90;;;;;;4898810;29;20052;-80
2021/10/09 20:07:18;;;;;;;49.75;30.02;;;12.20;99.90;;;;;;4926639;29;20060;-83